Pagina principale
METAR-TAF:

METAR-TAF

Aeroporti :

Aeroporto di Brescia-Ghedi

Brescia Ghedi, Italia

latitudine: 45-25N, longitudine: 010-17E, altezza: 102 m

Osservazione

Il bollettino è stato emesso 1 ora e 0 minuti fa, alle 10:55 UTC
Vento 2 kt da ovest/sud-ovest
Temperature 1°C
Umidità 64%
Pressione 1017 hPa
Visibilità 10 km o più
Poco nuvoloso ad un'altezza di 6000 ft
Nuvoloso ad un'altezza di 8000 ft

METAR: LIPL 211055Z 24002KT 9999 FEW060 BKN080 01/M05 Q1017 RMK BKN VIS MIN 9999 WIND THR31 25002KT WIND THR13 26002KT BLU

Ora: 12:55 (11:55 UTC)

Previsione

Il bollettino è stato emesso 3 ore e 55 minuti fa, alle 08:00 UTC
Previsione valida dal 21 alle 09 UTC al 21 alle 18 UTC
Vento 3 kt da direzioni variabili
Visibilità: 8000 m
Nubi sparse ad un'altezza di 6000 ft

TAF: LIPL 210800Z 2109/2118 VRB03KT 8000 SCT060

Osservazioni e previsioni meteorologiche di più di 4000 aeroporti (messaggi METAR e TAF).

Le stazioni disponibili sono rappresentate dai dischi gialli e rossi sulla carta.

Puntare il mouse per vedere il nome della stazione.

Clicca sopra per visualizzare le osservazioni e previsioni meteorologiche.

Per cambiare la mappa : fare clic sui pulsanti verdi con una croce nera per ingrandire, il pulsante verde con un trattino per diminuire, o sulla freccia verde per le mappe adiacenti.


METAR-TAF: